Time;durP1;ratioP1;P1;durP2;ratioP2;P2;SDS_P1;SDS_P2;PMS_P1;PMS_P2;Temp;Humidity;BMP_temperature;BMP_pressure;BME280_temperature;BME280_humidity;BME280_pressure;Samples;Min_cycle;Max_cycle;Signal;HPM_P1;HPM_P2
2022/02/04 00:22:24;;;;;;;0.10;0.10;;;;;;;;;;4933715;28;20821;-70
2022/02/04 00:24:53;;;;;;;1.23;0.87;;;;;;;;;;4945089;28;20202;-69
2022/02/04 00:27:25;;;;;;;2.43;1.97;;;;;;;;;;4954424;28;21243;-68
2022/02/04 00:29:59;;;;;;;0.00;0.00;;;;;;;;;;4958054;28;20280;-71
2022/02/04 00:32:30;;;;;;;1.43;1.00;;;;;;;;;;4965929;28;20201;-69
2022/02/04 00:35:08;;;;;;;2.67;0.97;;;;;;;;;;4969952;28;20207;-69
2022/02/04 00:37:44;;;;;;;0.00;0.00;;;;;;;;;;4969305;28;20222;-72
2022/02/04 00:40:18;;;;;;;0.87;0.87;;;;;;;;;;4964196;28;20210;-71
2022/02/04 00:42:46;;;;;;;0.07;0.07;;;;;;;;;;4969495;28;20202;-67
2022/02/04 00:45:20;;;;;;;0.00;0.00;;;;;;;;;;4965524;28;20199;-72
2022/02/04 00:47:54;;;;;;;1.60;1.33;;;;;;;;;;4968293;28;22221;-71
2022/02/04 00:50:28;;;;;;;0.37;0.20;;;;;;;;;;4965722;28;20208;-69
2022/02/04 00:53:08;;;;;;;0.30;0.30;;;;;;;;;;4966362;28;20285;-70
2022/02/04 00:55:44;;;;;;;0.30;0.30;;;;;;;;;;4967453;28;20210;-70
2022/02/04 01:26:03;;;;;;;0.30;0.30;;;;;;;;;;4938634;28;20373;-69
2022/02/04 01:28:33;;;;;;;1.57;1.47;;;;;;;;;;4958991;28;20218;-69
2022/02/04 01:31:01;;;;;;;0.40;0.40;;;;;;;;;;4957126;28;20259;-68
2022/02/04 01:33:29;;;;;;;0.67;0.67;;;;;;;;;;4962014;28;20206;-68
2022/02/04 01:35:56;;;;;;;1.23;0.73;;;;;;;;;;4957202;28;20202;-67
2022/02/04 01:38:25;;;;;;;1.47;1.37;;;;;;;;;;4957673;28;20710;-67
2022/02/04 01:40:52;;;;;;;2.83;1.90;;;;;;;;;;4957699;28;20207;-68
2022/02/04 01:43:22;;;;;;;1.57;1.47;;;;;;;;;;4960035;28;20238;-69
2022/02/04 01:45:52;;;;;;;0.97;0.93;;;;;;;;;;4958073;28;20226;-68
2022/02/04 01:48:19;;;;;;;0.97;0.63;;;;;;;;;;4957691;28;20575;-69
2022/02/04 01:50:47;;;;;;;0.47;0.33;;;;;;;;;;4958230;28;20588;-69
2022/02/04 01:53:15;;;;;;;0.20;0.13;;;;;;;;;;4958808;28;20209;-68
2022/02/04 01:55:43;;;;;;;0.60;0.57;;;;;;;;;;4957656;28;20224;-66
2022/02/04 01:58:10;;;;;;;0.77;0.77;;;;;;;;;;4957682;28;20203;-66
2022/02/04 02:00:38;;;;;;;0.13;0.13;;;;;;;;;;4957201;28;20214;-66
2022/02/04 02:03:08;;;;;;;0.73;0.73;;;;;;;;;;4956688;28;20198;-68
2022/02/04 02:05:36;;;;;;;0.00;0.00;;;;;;;;;;4956374;28;20199;-67
2022/02/04 02:08:07;;;;;;;1.17;0.57;;;;;;;;;;4958619;28;20285;-67
2022/02/04 02:10:34;;;;;;;0.00;0.00;;;;;;;;;;4957031;28;20301;-69
2022/02/04 02:13:11;;;;;;;0.00;0.00;;;;;;;;;;4957650;28;20667;-68
2022/02/04 02:15:47;;;;;;;0.30;0.20;;;;;;;;;;4958513;28;20206;-69
2022/02/04 02:46:10;;;;;;;0.57;0.37;;;;;;;;;;4965243;28;20229;-66
2022/02/04 02:48:58;;;;;;;0.47;0.47;;;;;;;;;;4959426;28;20202;-66
2022/02/04 02:51:47;;;;;;;0.00;0.00;;;;;;;;;;4962406;28;20313;-68
2022/02/04 02:59:48;;;;;;;0.17;0.10;;;;;;;;;;4938355;28;20210;-71
2022/02/04 03:02:16;;;;;;;3.00;1.07;;;;;;;;;;4947438;28;20198;-71
2022/02/04 03:04:43;;;;;;;1.17;1.07;;;;;;;;;;4948225;28;20205;-68
2022/02/04 03:07:10;;;;;;;0.00;0.00;;;;;;;;;;4946687;28;21674;-68
2022/02/04 03:09:39;;;;;;;0.00;0.00;;;;;;;;;;4955693;28;20214;-69
2022/02/04 03:12:07;;;;;;;2.10;0.77;;;;;;;;;;4948192;28;20207;-70
2022/02/04 03:14:35;;;;;;;0.43;0.43;;;;;;;;;;4946755;28;20195;-68
2022/02/04 03:17:04;;;;;;;1.83;1.10;;;;;;;;;;4946699;28;20222;-68
2022/02/04 03:19:32;;;;;;;0.30;0.20;;;;;;;;;;4951184;28;20651;-69
2022/02/04 03:22:04;;;;;;;0.40;0.30;;;;;;;;;;4946802;28;20209;-69
2022/02/04 03:24:33;;;;;;;0.60;0.60;;;;;;;;;;4951649;28;20248;-71
2022/02/04 03:27:07;;;;;;;0.27;0.27;;;;;;;;;;4951102;28;20238;-70
2022/02/04 03:29:50;;;;;;;0.70;0.70;;;;;;;;;;4948212;28;20336;-69
2022/02/04 03:32:20;;;;;;;0.60;0.40;;;;;;;;;;4949760;28;20225;-69
2022/02/04 03:34:47;;;;;;;0.33;0.33;;;;;;;;;;4954698;28;20234;-67
2022/02/04 03:37:15;;;;;;;1.40;0.77;;;;;;;;;;4948257;28;20214;-70
2022/02/04 03:39:42;;;;;;;0.73;0.73;;;;;;;;;;4964345;28;20215;-68
2022/02/04 03:42:11;;;;;;;0.00;0.00;;;;;;;;;;4964554;28;20705;-70
2022/02/04 03:44:39;;;;;;;0.00;0.00;;;;;;;;;;4965726;28;20202;-68
2022/02/04 03:47:06;;;;;;;0.07;0.00;;;;;;;;;;4963866;28;20237;-69
2022/02/04 03:49:34;;;;;;;0.00;0.00;;;;;;;;;;4963696;28;20567;-69
2022/02/04 03:52:01;;;;;;;0.00;0.00;;;;;;;;;;4957557;28;21676;-67
2022/02/04 03:54:29;;;;;;;0.23;0.23;;;;;;;;;;4947408;28;20410;-71
2022/02/04 03:56:56;;;;;;;0.43;0.43;;;;;;;;;;4948417;28;20194;-65
2022/02/04 03:59:28;;;;;;;3.60;1.83;;;;;;;;;;4946107;28;20209;-65
2022/02/04 04:01:55;;;;;;;0.30;0.30;;;;;;;;;;4949419;28;20579;-68
2022/02/04 04:04:28;;;;;;;0.30;0.30;;;;;;;;;;4947851;28;20206;-71
2022/02/04 04:06:55;;;;;;;0.10;0.07;;;;;;;;;;4945020;28;20360;-70
2022/02/04 04:09:22;;;;;;;0.10;0.10;;;;;;;;;;4954975;28;20213;-68
2022/02/04 04:11:50;;;;;;;0.00;0.00;;;;;;;;;;4949754;28;20194;-71
2022/02/04 04:14:18;;;;;;;0.63;0.13;;;;;;;;;;4947742;28;20217;-68
2022/02/04 04:16:48;;;;;;;0.00;0.00;;;;;;;;;;4947359;28;20207;-69
2022/02/04 04:19:15;;;;;;;0.20;0.20;;;;;;;;;;4950880;28;20190;-66
2022/02/04 04:21:42;;;;;;;1.70;0.73;;;;;;;;;;4947017;28;20229;-70
2022/02/04 04:24:10;;;;;;;0.20;0.20;;;;;;;;;;4946460;28;20210;-70
2022/02/04 04:26:40;;;;;;;0.30;0.27;;;;;;;;;;4947558;28;20603;-68
2022/02/04 04:29:08;;;;;;;0.40;0.40;;;;;;;;;;4961249;28;20292;-67
2022/02/04 04:31:35;;;;;;;0.10;0.10;;;;;;;;;;4964530;28;20209;-68
2022/02/04 04:34:04;;;;;;;0.17;0.17;;;;;;;;;;4963458;28;20205;-69
2022/02/04 04:36:32;;;;;;;0.50;0.50;;;;;;;;;;4961848;28;20206;-68
2022/02/04 04:39:07;;;;;;;0.63;0.47;;;;;;;;;;4963790;28;20206;-68
2022/02/04 04:41:47;;;;;;;0.70;0.50;;;;;;;;;;4959684;28;20209;-68
2022/02/04 04:44:48;;;;;;;0.00;0.00;;;;;;;;;;4963999;28;20190;-68
2022/02/04 05:26:22;;;;;;;0.50;0.50;;;;;;;;;;4962516;28;20261;-67
2022/02/04 05:28:59;;;;;;;0.27;0.27;;;;;;;;;;4962128;28;20643;-67
2022/02/04 05:31:27;;;;;;;0.87;0.83;;;;;;;;;;4953995;28;20982;-68
2022/02/04 05:33:54;;;;;;;0.00;0.00;;;;;;;;;;4957057;28;20198;-70
2022/02/04 05:36:22;;;;;;;0.97;0.87;;;;;;;;;;4946120;28;20199;-70
2022/02/04 05:38:53;;;;;;;0.70;0.70;;;;;;;;;;4950617;28;20680;-69
2022/02/04 05:41:26;;;;;;;1.07;0.87;;;;;;;;;;4948526;28;20770;-67
2022/02/04 05:43:55;;;;;;;1.07;0.80;;;;;;;;;;4951639;28;20206;-68
2022/02/04 05:46:28;;;;;;;3.30;1.20;;;;;;;;;;4966485;28;20198;-69
2022/02/04 05:48:57;;;;;;;0.80;0.80;;;;;;;;;;4966295;28;20235;-67
2022/02/04 05:51:34;;;;;;;1.10;1.00;;;;;;;;;;4966917;28;20202;-67
2022/02/04 05:54:10;;;;;;;0.50;0.50;;;;;;;;;;4967534;28;20344;-67
2022/02/04 05:56:44;;;;;;;0.67;0.67;;;;;;;;;;4968563;28;20706;-67
2022/02/04 05:59:21;;;;;;;1.90;1.80;;;;;;;;;;4966882;28;20202;-70
2022/02/04 06:01:57;;;;;;;1.07;1.00;;;;;;;;;;4964430;28;20210;-67
2022/02/04 06:04:40;;;;;;;1.20;1.10;;;;;;;;;;4967624;28;20210;-66
2022/02/04 06:07:18;;;;;;;1.47;1.37;;;;;;;;;;4965509;28;20233;-67
2022/02/04 06:23:47;;;;;;;2.93;2.20;;;;;;;;;;4966872;28;20297;-69
2022/02/04 06:26:16;;;;;;;1.40;0.67;;;;;;;;;;4964338;28;20225;-68
2022/02/04 06:28:43;;;;;;;1.90;1.80;;;;;;;;;;4967782;28;20226;-69
2022/02/04 06:31:11;;;;;;;1.80;1.40;;;;;;;;;;4965721;28;20194;-68
2022/02/04 06:33:38;;;;;;;1.33;0.87;;;;;;;;;;4966591;28;20213;-69
2022/02/04 06:36:06;;;;;;;0.43;0.43;;;;;;;;;;4966597;28;20206;-69
2022/02/04 06:38:34;;;;;;;1.93;1.77;;;;;;;;;;4964727;28;20234;-68
2022/02/04 06:41:02;;;;;;;1.83;1.73;;;;;;;;;;4965048;28;20567;-69
2022/02/04 06:43:31;;;;;;;2.77;1.40;;;;;;;;;;4963770;28;20202;-68
2022/02/04 06:45:59;;;;;;;1.67;1.57;;;;;;;;;;4956908;28;20206;-69
2022/02/04 06:48:26;;;;;;;0.97;0.87;;;;;;;;;;4957049;28;20289;-68
2022/02/04 06:50:54;;;;;;;0.60;0.50;;;;;;;;;;4957775;28;20203;-69
2022/02/04 06:53:21;;;;;;;2.30;2.10;;;;;;;;;;4957920;28;20211;-67
2022/02/04 06:55:49;;;;;;;0.87;0.87;;;;;;;;;;4958527;28;20203;-67
2022/02/04 06:58:16;;;;;;;1.60;1.50;;;;;;;;;;4959068;28;20210;-68
2022/02/04 07:00:45;;;;;;;1.77;1.67;;;;;;;;;;4960332;28;20221;-67
2022/02/04 07:03:13;;;;;;;1.90;1.80;;;;;;;;;;4960042;28;20198;-72
2022/02/04 07:05:51;;;;;;;2.73;2.53;;;;;;;;;;4956299;28;20205;-70
2022/02/04 07:08:23;;;;;;;2.10;1.40;;;;;;;;;;4957467;28;20726;-69
2022/02/04 07:11:12;;;;;;;3.10;1.93;;;;;;;;;;4957561;28;20238;-67
2022/02/04 07:13:57;;;;;;;1.57;1.47;;;;;;;;;;4957951;28;20202;-67
2022/02/04 07:16:32;;;;;;;1.20;1.10;;;;;;;;;;4956224;28;20203;-68
2022/02/04 07:21:45;;;;;;;2.93;1.23;;;;;;;;;;4963662;28;20732;-67
2022/02/04 07:24:12;;;;;;;0.63;0.63;;;;;;;;;;4963976;28;20212;-70
2022/02/04 07:26:39;;;;;;;2.20;1.97;;;;;;;;;;4963796;28;20204;-69
2022/02/04 07:29:07;;;;;;;2.53;1.90;;;;;;;;;;4966103;28;20234;-68
2022/02/04 07:31:39;;;;;;;4.27;3.10;;;;;;;;;;4963387;28;20206;-69
2022/02/04 07:34:19;;;;;;;3.20;2.90;;;;;;;;;;4964350;28;20202;-69
2022/02/04 07:42:16;;;;;;;1.07;0.93;;;;;;;;;;4960172;28;20233;-66
2022/02/04 07:44:44;;;;;;;1.27;0.83;;;;;;;;;;4964250;28;20209;-69
2022/02/04 07:47:13;;;;;;;0.97;0.97;;;;;;;;;;4963597;28;20218;-73
2022/02/04 07:49:41;;;;;;;1.90;1.20;;;;;;;;;;4963611;28;20205;-70
2022/02/04 07:52:08;;;;;;;2.10;1.80;;;;;;;;;;4960290;28;20202;-71
2022/02/04 07:54:35;;;;;;;2.73;1.37;;;;;;;;;;4956938;28;20225;-66
2022/02/04 07:57:03;;;;;;;0.73;0.73;;;;;;;;;;4959023;28;20206;-68
2022/02/04 07:59:30;;;;;;;2.30;1.50;;;;;;;;;;4964706;28;20214;-68
2022/02/04 08:01:58;;;;;;;3.40;1.40;;;;;;;;;;4966815;28;20302;-67
2022/02/04 08:04:30;;;;;;;0.57;0.57;;;;;;;;;;4965874;28;20214;-68
2022/02/04 08:07:02;;;;;;;5.50;2.20;;;;;;;;;;4965892;28;20552;-67
2022/02/04 08:09:37;;;;;;;1.50;1.40;;;;;;;;;;4963907;28;20221;-71
2022/02/04 08:12:25;;;;;;;4.40;1.80;;;;;;;;;;4965233;28;20790;-72
2022/02/04 08:15:00;;;;;;;2.10;2.00;;;;;;;;;;4963283;28;20213;-68
2022/02/04 08:20:34;;;;;;;0.93;0.93;;;;;;;;;;4966173;28;20349;-69
2022/02/04 08:26:15;;;;;;;1.17;1.07;;;;;;;;;;4967605;28;20217;-67
2022/02/04 08:37:40;;;;;;;1.30;1.20;;;;;;;;;;4967735;28;20259;-68
2022/02/04 08:56:42;;;;;;;1.77;1.67;;;;;;;;;;4952620;28;20324;-70
2022/02/04 08:59:18;;;;;;;2.57;1.90;;;;;;;;;;4946391;28;20210;-69
2022/02/04 09:01:54;;;;;;;1.50;1.40;;;;;;;;;;4945054;28;20194;-69
2022/02/04 09:04:30;;;;;;;1.63;1.53;;;;;;;;;;4950326;28;20202;-69
2022/02/04 09:07:04;;;;;;;3.30;3.00;;;;;;;;;;4950551;28;20213;-69
2022/02/04 09:09:48;;;;;;;3.47;3.17;;;;;;;;;;4949210;28;20606;-67
2022/02/04 09:20:35;;;;;;;1.90;1.63;;;;;;;;;;4931880;28;20231;-70
2022/02/04 09:23:02;;;;;;;2.43;1.83;;;;;;;;;;4936716;29;20211;-67
2022/02/04 09:25:31;;;;;;;1.30;0.83;;;;;;;;;;4946859;29;20211;-73
2022/02/04 09:27:59;;;;;;;1.97;1.63;;;;;;;;;;4930286;29;20226;-71
2022/02/04 09:30:26;;;;;;;0.90;0.77;;;;;;;;;;4927275;29;20635;-68
2022/02/04 09:32:54;;;;;;;1.63;1.53;;;;;;;;;;4929461;29;20210;-69
2022/02/04 09:35:23;;;;;;;1.67;1.57;;;;;;;;;;4944010;29;20668;-68
2022/02/04 09:37:51;;;;;;;1.13;1.07;;;;;;;;;;4945209;29;20207;-67
2022/02/04 09:40:19;;;;;;;2.93;1.27;;;;;;;;;;4942910;29;20235;-67
2022/02/04 09:42:48;;;;;;;2.70;2.03;;;;;;;;;;4939002;29;20211;-71
2022/02/04 09:45:18;;;;;;;1.33;0.93;;;;;;;;;;4930214;29;20213;-70
2022/02/04 09:47:48;;;;;;;1.83;1.73;;;;;;;;;;4942263;29;20239;-68
2022/02/04 09:50:19;;;;;;;1.73;1.63;;;;;;;;;;4935918;29;20199;-68
2022/02/04 10:10:36;;;;;;;3.10;2.20;;;;;;;;;;4886648;29;20209;-68
2022/02/04 10:13:36;;;;;;;2.03;1.87;;;;;;;;;;4952486;28;20289;-68
2022/02/04 10:16:25;;;;;;;1.13;1.03;;;;;;;;;;4964607;28;20201;-68
2022/02/04 10:19:24;;;;;;;2.07;1.30;;;;;;;;;;4964813;28;20202;-69
2022/02/04 10:21:57;;;;;;;1.67;1.30;;;;;;;;;;4963469;28;20292;-67
2022/02/04 10:24:26;;;;;;;1.10;1.00;;;;;;;;;;4965187;28;20210;-69
2022/02/04 10:27:10;;;;;;;0.73;0.73;;;;;;;;;;4964037;28;20249;-70
2022/02/04 10:29:37;;;;;;;1.00;1.00;;;;;;;;;;4965201;28;20234;-70
2022/02/04 10:32:06;;;;;;;2.63;2.30;;;;;;;;;;4965404;28;20236;-68
2022/02/04 10:34:35;;;;;;;1.87;1.73;;;;;;;;;;4966468;28;20585;-68
2022/02/04 10:37:06;;;;;;;0.97;0.80;;;;;;;;;;4967926;28;20289;-69
2022/02/04 10:39:52;;;;;;;0.83;0.83;;;;;;;;;;4959666;28;20195;-72
2022/02/04 10:42:28;;;;;;;1.83;1.47;;;;;;;;;;4963571;28;20563;-67
2022/02/04 10:47:56;;;;;;;1.20;1.10;;;;;;;;;;4970420;28;20206;-67
2022/02/04 10:50:49;;;;;;;1.70;1.43;;;;;;;;;;4971146;28;20202;-68
2022/02/04 10:53:42;;;;;;;0.50;0.50;;;;;;;;;;4971493;28;20206;-67
2022/02/04 10:59:09;;;;;;;1.40;1.30;;;;;;;;;;4968284;28;20296;-69
2022/02/04 11:01:59;;;;;;;0.77;0.77;;;;;;;;;;4968316;28;20210;-67
2022/02/04 11:04:34;;;;;;;0.40;0.40;;;;;;;;;;4970814;28;20206;-69
2022/02/04 11:07:17;;;;;;;2.57;1.33;;;;;;;;;;4970792;28;20232;-68
2022/02/04 11:09:58;;;;;;;0.10;0.10;;;;;;;;;;4971564;28;20233;-67
2022/02/04 11:32:28;;;;;;;0.50;0.50;;;;;;;;;;4970821;28;20236;-64
2022/02/04 11:35:31;;;;;;;0.43;0.43;;;;;;;;;;4970692;28;20604;-65
2022/02/04 11:52:33;;;;;;;3.27;0.67;;;;;;;;;;4960177;28;20202;-64
2022/02/04 11:55:03;;;;;;;1.13;1.03;;;;;;;;;;4964242;28;20210;-63
2022/02/04 11:57:34;;;;;;;0.87;0.87;;;;;;;;;;4960087;28;20202;-65
2022/02/04 12:00:04;;;;;;;0.83;0.43;;;;;;;;;;4961749;28;20202;-65
2022/02/04 12:02:34;;;;;;;1.03;0.93;;;;;;;;;;4960591;28;20632;-67
2022/02/04 12:05:20;;;;;;;1.17;0.93;;;;;;;;;;4960750;28;20210;-65
2022/02/04 12:07:49;;;;;;;0.37;0.37;;;;;;;;;;4956105;28;20217;-67
2022/02/04 12:10:22;;;;;;;0.83;0.80;;;;;;;;;;4959820;28;20203;-70
2022/02/04 12:13:08;;;;;;;0.30;0.30;;;;;;;;;;4962270;28;20240;-72
2022/02/04 12:15:37;;;;;;;1.00;0.90;;;;;;;;;;4964954;28;20645;-66
2022/02/04 12:18:05;;;;;;;0.77;0.77;;;;;;;;;;4960511;28;20289;-69
2022/02/04 12:20:53;;;;;;;0.27;0.27;;;;;;;;;;4959863;28;20246;-69
2022/02/04 12:23:41;;;;;;;0.77;0.73;;;;;;;;;;4960516;28;20490;-68
2022/02/04 12:26:16;;;;;;;0.77;0.77;;;;;;;;;;4959326;28;20199;-66
2022/02/04 12:28:44;;;;;;;3.03;0.70;;;;;;;;;;4960075;28;20308;-67
2022/02/04 12:31:13;;;;;;;1.20;1.10;;;;;;;;;;4959416;28;20244;-72
2022/02/04 12:33:41;;;;;;;0.53;0.37;;;;;;;;;;4958251;28;20304;-64
2022/02/04 12:36:13;;;;;;;0.77;0.77;;;;;;;;;;4962037;28;20205;-67
2022/02/04 12:38:40;;;;;;;0.30;0.30;;;;;;;;;;4960767;28;20335;-69
2022/02/04 12:41:07;;;;;;;2.77;1.00;;;;;;;;;;4959760;28;20213;-71
2022/02/04 12:43:37;;;;;;;3.23;1.57;;;;;;;;;;4962386;28;20233;-68
2022/02/04 12:46:05;;;;;;;1.57;1.23;;;;;;;;;;4959695;28;20207;-66
2022/02/04 12:48:33;;;;;;;1.23;1.13;;;;;;;;;;4960390;28;20325;-72
2022/02/04 12:51:00;;;;;;;1.67;1.07;;;;;;;;;;4960699;28;20702;-70
2022/02/04 12:53:30;;;;;;;0.00;0.00;;;;;;;;;;4959259;28;20676;-69
2022/02/04 12:56:04;;;;;;;0.70;0.70;;;;;;;;;;4958431;28;20346;-67
2022/02/04 12:58:55;;;;;;;0.20;0.20;;;;;;;;;;4959894;28;20556;-69
2022/02/04 13:09:52;;;;;;;1.47;1.37;;;;;;;;;;4960626;28;20352;-68
2022/02/04 13:12:20;;;;;;;3.50;0.93;;;;;;;;;;4961142;28;20288;-66
2022/02/04 13:14:48;;;;;;;0.20;0.20;;;;;;;;;;4960383;28;20209;-68
2022/02/04 13:17:30;;;;;;;0.10;0.10;;;;;;;;;;4960983;28;20662;-69
2022/02/04 13:19:58;;;;;;;0.67;0.60;;;;;;;;;;4957002;28;20234;-67
2022/02/04 13:22:26;;;;;;;4.07;0.20;;;;;;;;;;4959303;28;20207;-67
2022/02/04 13:25:07;;;;;;;0.00;0.00;;;;;;;;;;4955360;28;20219;-72
2022/02/04 13:27:35;;;;;;;0.00;0.00;;;;;;;;;;4960056;28;20210;-65
2022/02/04 13:30:17;;;;;;;0.00;0.00;;;;;;;;;;4958088;28;20218;-70
2022/02/04 13:32:47;;;;;;;0.00;0.00;;;;;;;;;;4959027;28;20203;-69
2022/02/04 13:35:26;;;;;;;0.00;0.00;;;;;;;;;;4958945;28;20198;-66
2022/02/04 13:37:56;;;;;;;0.00;0.00;;;;;;;;;;4956305;28;20266;-67
2022/02/04 13:40:33;;;;;;;0.00;0.00;;;;;;;;;;4959495;28;20210;-68
2022/02/04 13:43:17;;;;;;;0.00;0.00;;;;;;;;;;4955940;28;20614;-68
2022/02/04 13:45:56;;;;;;;0.50;0.20;;;;;;;;;;4961606;28;20237;-68
2022/02/04 13:48:41;;;;;;;0.10;0.10;;;;;;;;;;4959759;28;20206;-70
2022/02/04 13:51:20;;;;;;;0.00;0.00;;;;;;;;;;4960728;28;20637;-69
2022/02/04 13:54:03;;;;;;;0.00;0.00;;;;;;;;;;4958689;28;20217;-66
2022/02/04 13:56:42;;;;;;;0.00;0.00;;;;;;;;;;4959174;28;20607;-65
2022/02/04 13:59:17;;;;;;;0.00;0.00;;;;;;;;;;4960654;28;20685;-68
2022/02/04 14:01:54;;;;;;;0.00;0.00;;;;;;;;;;4957787;28;20214;-67
2022/02/04 14:04:23;;;;;;;0.00;0.00;;;;;;;;;;4962122;28;20960;-65
2022/02/04 14:07:07;;;;;;;0.00;0.00;;;;;;;;;;4963230;28;20211;-66
2022/02/04 14:09:37;;;;;;;0.00;0.00;;;;;;;;;;4965112;28;20794;-68
2022/02/04 14:12:15;;;;;;;0.00;0.00;;;;;;;;;;4960752;28;20207;-67
2022/02/04 14:14:43;;;;;;;0.00;0.00;;;;;;;;;;4962874;28;21682;-68
2022/02/04 14:17:11;;;;;;;0.00;0.00;;;;;;;;;;4965016;28;20586;-69
2022/02/04 14:19:39;;;;;;;0.00;0.00;;;;;;;;;;4964428;28;20202;-69
2022/02/04 14:22:09;;;;;;;0.00;0.00;;;;;;;;;;4964030;28;20210;-70
2022/02/04 14:24:36;;;;;;;0.00;0.00;;;;;;;;;;4964740;28;20198;-67
2022/02/04 14:27:05;;;;;;;0.00;0.00;;;;;;;;;;4963395;28;20198;-69
2022/02/04 14:29:39;;;;;;;0.00;0.00;;;;;;;;;;4961146;28;20248;-69
2022/02/04 14:32:15;;;;;;;0.00;0.00;;;;;;;;;;4963092;28;20751;-65
2022/02/04 14:34:58;;;;;;;0.00;0.00;;;;;;;;;;4963570;28;20202;-66
2022/02/04 14:37:46;;;;;;;0.00;0.00;;;;;;;;;;4968399;28;20198;-68
2022/02/04 14:51:44;;;;;;;0.00;0.00;;;;;;;;;;4962556;28;20575;-67
2022/02/04 14:54:26;;;;;;;0.00;0.00;;;;;;;;;;4961196;28;20543;-68
2022/02/04 15:02:28;;;;;;;0.00;0.00;;;;;;;;;;4964303;28;20212;-66
2022/02/04 15:04:56;;;;;;;0.00;0.00;;;;;;;;;;4958235;28;20270;-66
2022/02/04 15:07:31;;;;;;;0.00;0.00;;;;;;;;;;4963649;28;20198;-69
2022/02/04 15:10:01;;;;;;;0.00;0.00;;;;;;;;;;4961449;28;20321;-67
2022/02/04 15:12:28;;;;;;;0.70;0.20;;;;;;;;;;4962080;28;20217;-67
2022/02/04 15:14:56;;;;;;;0.07;0.07;;;;;;;;;;4962635;28;20199;-67
2022/02/04 15:17:23;;;;;;;0.10;0.10;;;;;;;;;;4963406;28;20210;-66
2022/02/04 15:19:51;;;;;;;2.77;0.13;;;;;;;;;;4961117;28;20242;-67
2022/02/04 15:22:23;;;;;;;0.30;0.30;;;;;;;;;;4962244;28;20210;-65
2022/02/04 15:24:56;;;;;;;0.00;0.00;;;;;;;;;;4964966;28;20202;-65
2022/02/04 15:27:26;;;;;;;0.57;0.50;;;;;;;;;;4963882;28;20575;-66
2022/02/04 15:29:54;;;;;;;5.10;0.43;;;;;;;;;;4962052;28;20711;-68
2022/02/04 15:32:22;;;;;;;3.20;0.40;;;;;;;;;;4960407;28;20216;-67
2022/02/04 15:34:51;;;;;;;0.00;0.00;;;;;;;;;;4962964;28;20195;-67
2022/02/04 15:37:18;;;;;;;1.57;0.83;;;;;;;;;;4963128;28;20212;-67
2022/02/04 15:39:46;;;;;;;0.20;0.10;;;;;;;;;;4962231;28;20868;-67
2022/02/04 15:42:17;;;;;;;0.00;0.00;;;;;;;;;;4964120;28;20779;-66
2022/02/04 15:44:58;;;;;;;3.50;0.50;;;;;;;;;;4962324;28;20202;-65
2022/02/04 15:47:34;;;;;;;0.20;0.20;;;;;;;;;;4961441;28;20198;-65
2022/02/04 15:52:58;;;;;;;0.10;0.10;;;;;;;;;;4961097;28;20353;-67
2022/02/04 15:58:23;;;;;;;0.40;0.40;;;;;;;;;;4961426;28;20293;-66
2022/02/04 16:01:12;;;;;;;0.97;0.40;;;;;;;;;;4963063;28;20207;-67
2022/02/04 16:06:22;;;;;;;1.50;0.57;;;;;;;;;;4959067;28;20279;-65
2022/02/04 16:08:53;;;;;;;0.10;0.10;;;;;;;;;;4961962;28;20293;-64
2022/02/04 16:11:32;;;;;;;0.50;0.50;;;;;;;;;;4961004;28;20232;-65
2022/02/04 16:14:15;;;;;;;0.77;0.63;;;;;;;;;;4961754;28;20217;-68
2022/02/04 16:16:44;;;;;;;0.10;0.10;;;;;;;;;;4960303;28;20194;-67
2022/02/04 16:19:25;;;;;;;0.60;0.40;;;;;;;;;;4960693;28;20210;-68
2022/02/04 16:22:08;;;;;;;0.60;0.23;;;;;;;;;;4962926;28;20710;-66
2022/02/04 16:25:03;;;;;;;0.00;0.00;;;;;;;;;;4960980;28;20333;-68
2022/02/04 16:30:16;;;;;;;1.57;0.23;;;;;;;;;;4961572;28;20581;-67
2022/02/04 16:32:44;;;;;;;0.50;0.50;;;;;;;;;;4963091;28;20932;-67
2022/02/04 16:35:11;;;;;;;0.83;0.77;;;;;;;;;;4963571;28;20202;-73
2022/02/04 16:37:41;;;;;;;0.50;0.40;;;;;;;;;;4963106;28;20265;-66
2022/02/04 16:40:14;;;;;;;3.30;1.37;;;;;;;;;;4969352;28;20197;-66
2022/02/04 16:42:42;;;;;;;0.93;0.50;;;;;;;;;;4966379;28;20194;-64
2022/02/04 16:45:10;;;;;;;0.30;0.30;;;;;;;;;;4970485;28;20258;-64
2022/02/04 16:47:38;;;;;;;0.30;0.30;;;;;;;;;;4971399;28;20253;-64
2022/02/04 16:50:06;;;;;;;2.23;0.67;;;;;;;;;;4971696;28;20226;-66
2022/02/04 16:52:34;;;;;;;0.57;0.30;;;;;;;;;;4970664;28;20202;-66
2022/02/04 16:55:01;;;;;;;0.20;0.20;;;;;;;;;;4972273;28;20209;-64
2022/02/04 16:57:29;;;;;;;0.10;0.10;;;;;;;;;;4970879;28;20202;-63
2022/02/04 17:00:00;;;;;;;2.83;2.03;;;;;;;;;;4961492;28;20224;-66
2022/02/04 17:02:27;;;;;;;2.67;2.47;;;;;;;;;;4970927;28;20202;-66
2022/02/04 17:04:56;;;;;;;0.43;0.40;;;;;;;;;;4971525;28;20230;-66
2022/02/04 17:07:26;;;;;;;0.10;0.10;;;;;;;;;;4970818;28;20216;-66
2022/02/04 17:09:54;;;;;;;0.43;0.37;;;;;;;;;;4966660;28;20226;-66
2022/02/04 17:12:29;;;;;;;0.10;0.10;;;;;;;;;;4962749;28;20203;-67
2022/02/04 17:14:59;;;;;;;0.50;0.40;;;;;;;;;;4961408;28;20205;-67
2022/02/04 17:17:26;;;;;;;0.57;0.57;;;;;;;;;;4960484;28;20344;-64
2022/02/04 17:20:05;;;;;;;1.93;0.53;;;;;;;;;;4963113;28;20253;-70
2022/02/04 17:22:35;;;;;;;0.63;0.63;;;;;;;;;;4963060;28;20217;-66
2022/02/04 17:25:07;;;;;;;0.40;0.37;;;;;;;;;;4964404;28;20285;-63
2022/02/04 17:27:35;;;;;;;1.03;0.43;;;;;;;;;;4959031;28;20741;-64
2022/02/04 17:30:02;;;;;;;13.30;0.97;;;;;;;;;;4961073;28;20601;-65
2022/02/04 17:32:30;;;;;;;0.70;0.70;;;;;;;;;;4964173;28;20202;-65
2022/02/04 17:34:59;;;;;;;0.20;0.20;;;;;;;;;;4962213;28;20301;-64
2022/02/04 17:37:26;;;;;;;3.63;0.73;;;;;;;;;;4962382;28;20206;-63
2022/02/04 17:39:55;;;;;;;0.10;0.10;;;;;;;;;;4965228;28;20217;-68
2022/02/04 17:42:26;;;;;;;0.07;0.07;;;;;;;;;;4962398;28;20199;-63
2022/02/04 17:44:53;;;;;;;1.23;0.50;;;;;;;;;;4967493;28;20217;-63
2022/02/04 17:47:24;;;;;;;0.17;0.17;;;;;;;;;;4967270;28;20293;-65
2022/02/04 17:49:57;;;;;;;0.00;0.00;;;;;;;;;;4966782;28;20230;-68
2022/02/04 17:52:35;;;;;;;0.00;0.00;;;;;;;;;;4965855;28;20616;-65
2022/02/04 17:55:07;;;;;;;0.20;0.20;;;;;;;;;;4966317;28;20275;-70
2022/02/04 17:57:39;;;;;;;8.37;0.37;;;;;;;;;;4966340;28;20202;-63
2022/02/04 18:03:03;;;;;;;4.93;0.40;;;;;;;;;;4962955;28;20710;-64
2022/02/04 18:05:41;;;;;;;0.23;0.23;;;;;;;;;;4964312;28;20671;-64
2022/02/04 18:08:10;;;;;;;0.30;0.17;;;;;;;;;;4965692;28;20581;-65
2022/02/04 18:10:39;;;;;;;0.77;0.63;;;;;;;;;;4964158;28;20710;-65
2022/02/04 18:13:08;;;;;;;2.33;0.77;;;;;;;;;;4965617;28;20202;-65
2022/02/04 18:15:40;;;;;;;0.37;0.03;;;;;;;;;;4964633;28;20213;-66
2022/02/04 18:18:08;;;;;;;0.53;0.53;;;;;;;;;;4967264;28;20221;-65
2022/02/04 18:20:35;;;;;;;0.90;0.17;;;;;;;;;;4964441;28;20245;-68
2022/02/04 18:23:03;;;;;;;0.20;0.20;;;;;;;;;;4964270;28;20583;-67
2022/02/04 18:25:31;;;;;;;0.10;0.00;;;;;;;;;;4964966;28;20213;-65
2022/02/04 18:27:59;;;;;;;0.00;0.00;;;;;;;;;;4965707;28;20202;-65
2022/02/04 18:30:29;;;;;;;0.00;0.00;;;;;;;;;;4964481;28;20712;-65
2022/02/04 18:32:56;;;;;;;0.10;0.10;;;;;;;;;;4963782;28;20206;-70
2022/02/04 18:35:23;;;;;;;0.67;0.67;;;;;;;;;;4964743;28;20691;-63
2022/02/04 18:38:01;;;;;;;1.00;0.40;;;;;;;;;;4967639;28;20206;-65
2022/02/04 18:46:13;;;;;;;0.20;0.20;;;;;;;;;;4962896;28;20211;-63
2022/02/04 18:48:47;;;;;;;0.43;0.43;;;;;;;;;;4962921;28;20202;-67
2022/02/04 18:51:26;;;;;;;0.40;0.30;;;;;;;;;;4963399;28;20230;-65
2022/02/04 18:54:00;;;;;;;5.80;0.47;;;;;;;;;;4964058;28;20206;-64
2022/02/04 18:56:55;;;;;;;0.00;0.00;;;;;;;;;;4964173;28;20237;-65
2022/02/04 18:59:25;;;;;;;0.43;0.43;;;;;;;;;;4963413;28;20660;-65
2022/02/04 19:01:53;;;;;;;0.10;0.10;;;;;;;;;;4965374;28;20281;-66
2022/02/04 19:04:27;;;;;;;0.27;0.27;;;;;;;;;;4963023;28;20253;-66
2022/02/04 19:07:00;;;;;;;0.00;0.00;;;;;;;;;;4966485;28;20218;-65
2022/02/04 19:09:27;;;;;;;0.33;0.23;;;;;;;;;;4963519;28;20870;-67
2022/02/04 19:12:02;;;;;;;0.00;0.00;;;;;;;;;;4965957;28;20222;-65
2022/02/04 19:14:43;;;;;;;1.33;0.30;;;;;;;;;;4961261;28;20202;-65
2022/02/04 19:17:15;;;;;;;0.37;0.37;;;;;;;;;;4964929;28;20202;-65
2022/02/04 19:19:50;;;;;;;0.00;0.00;;;;;;;;;;4964932;28;20234;-64
2022/02/04 19:22:28;;;;;;;0.77;0.30;;;;;;;;;;4964529;28;20232;-66
2022/02/04 19:24:58;;;;;;;0.00;0.00;;;;;;;;;;4962638;28;20261;-64
2022/02/04 19:27:26;;;;;;;0.27;0.17;;;;;;;;;;4965897;28;20233;-65
2022/02/04 19:29:55;;;;;;;0.50;0.10;;;;;;;;;;4962370;28;20209;-65
2022/02/04 19:32:23;;;;;;;0.57;0.27;;;;;;;;;;4964944;28;20241;-65
2022/02/04 19:34:51;;;;;;;1.80;0.80;;;;;;;;;;4962334;28;20301;-66
2022/02/04 19:37:19;;;;;;;0.60;0.60;;;;;;;;;;4966088;28;20209;-67
2022/02/04 19:39:48;;;;;;;2.53;0.97;;;;;;;;;;4962870;28;20554;-68
2022/02/04 19:42:24;;;;;;;0.90;0.43;;;;;;;;;;4964396;28;20198;-65
2022/02/04 19:44:54;;;;;;;0.47;0.10;;;;;;;;;;4962199;28;20849;-67
2022/02/04 19:47:29;;;;;;;0.20;0.20;;;;;;;;;;4964598;28;20201;-67
2022/02/04 19:50:11;;;;;;;0.50;0.50;;;;;;;;;;4965064;28;20686;-65
2022/02/04 19:52:56;;;;;;;0.00;0.00;;;;;;;;;;4964244;28;20194;-64
2022/02/04 20:25:49;;;;;;;0.13;0.13;;;;;;;;;;4945333;28;20297;-66
2022/02/04 20:28:19;;;;;;;0.73;0.73;;;;;;;;;;4944193;28;20203;-66
2022/02/04 20:30:47;;;;;;;0.00;0.00;;;;;;;;;;4942231;28;20231;-65